Belvidere, New Jersey
Current Conditions -  °F | °C
As of 10:51 PM on Friday 24 Oct 2014 (Local Time) from KABE Reporting Station
Clear Clear  
Wind Chill: 55°   Ceiling: Unl
Heat Index: 55°   Visibility: 10mi
Dew Point: 37°   Wind: 3mph
Humidity: 51%   Direction: 320°NW
Pressure: 29.89"   Gusts: NA
Location:  40.83°N, 75.08°W
Report Text: KABE 250251Z 32003KT 10SM CLR 13/03 A2989 RMK AO2 SLP120 T01280028 51011
Loading
Personal Weather Stations






























Interactive Weather Map New forecast layout! Learn more

10-Day Weather Forecast

Advertisements
Track Severe Weather on mobile